Time;durP1;ratioP1;P1;durP2;ratioP2;P2;SDS_P1;SDS_P2;PMS_P1;PMS_P2;Temp;Humidity;BMP_temperature;BMP_pressure;BME280_temperature;BME280_humidity;BME280_pressure;Samples;Min_cycle;Max_cycle;Signal;HPM_P1;HPM_P2
2021/04/12 00:02:04;;;;;;;7.47;6.85;;;;;;;29.83;49.27;101210.78;5024818;28;65445;-26
2021/04/12 00:04:50;;;;;;;16.02;7.03;;;;;;;29.98;50.04;101234.97;5027401;28;71141;-29
2021/04/12 00:07:49;;;;;;;18.45;9.55;;;;;;;30.10;52.09;101246.00;5038154;28;65997;-27
2021/04/12 00:10:48;;;;;;;21.70;11.18;;;;;;;30.21;53.05;101242.69;5032633;28;69372;-27
2021/04/12 00:13:33;;;;;;;27.27;14.23;;;;;;;30.31;54.32;101246.88;5034104;28;65422;-26
2021/04/12 00:16:20;;;;;;;44.22;16.42;;;;;;;30.37;54.95;101243.34;5025801;28;69911;-27
2021/04/12 00:19:18;;;;;;;42.33;17.00;;;;;;;30.37;56.65;101251.47;5026957;28;66193;-27
2021/04/12 00:21:54;;;;;;;39.17;16.45;;;;;;;30.44;55.17;101247.72;5027605;28;69286;-28
2021/04/12 00:24:50;;;;;;;22.75;14.23;;;;;;;30.41;55.18;101239.19;5039555;28;65028;-28
2021/04/12 00:27:30;;;;;;;37.25;16.02;;;;;;;30.61;55.47;101258.94;5030561;28;70062;-28
2021/04/12 00:30:00;;;;;;;29.52;16.08;;;;;;;30.61;55.36;101261.66;5037404;28;66010;-28
2021/04/12 00:32:42;;;;;;;27.95;15.88;;;;;;;30.50;56.84;101237.94;5030224;28;70313;-28
2021/04/12 00:35:22;;;;;;;33.28;15.75;;;;;;;30.59;55.87;101258.34;5028667;28;66024;-28
2021/04/12 00:38:03;;;;;;;31.15;15.10;;;;;;;30.62;55.85;101263.34;5034404;28;70943;-28
2021/04/12 00:40:47;;;;;;;27.75;15.55;;;;;;;30.71;56.03;101267.50;5030883;28;65235;-28
2021/04/12 00:43:24;;;;;;;34.40;15.73;;;;;;;30.83;54.34;101269.59;5037918;28;69166;-29
2021/04/12 00:46:17;;;;;;;33.53;15.23;;;;;;;30.84;55.09;101271.25;5036358;28;66015;-28
2021/04/12 00:49:07;;;;;;;31.08;14.48;;;;;;;30.85;55.21;101290.00;5028557;28;69086;-28
2021/04/12 00:51:44;;;;;;;26.55;14.68;;;;;;;30.89;54.58;101290.41;5017356;28;65107;-28
2021/04/12 00:54:17;;;;;;;23.83;14.23;;;;;;;30.92;54.74;101300.81;5027052;28;69990;-28
2021/04/12 00:57:16;;;;;;;21.48;14.27;;;;;;;30.90;54.21;101302.94;5053969;28;65593;-28
2021/04/12 00:59:58;;;;;;;22.08;13.48;;;;;;;30.94;54.23;101304.16;5020439;28;69687;-29
2021/04/12 01:02:58;;;;;;;23.88;14.13;;;;;;;30.99;54.06;101307.06;5052523;28;65474;-30
2021/04/12 01:05:51;;;;;;;24.05;13.43;;;;;;;31.03;54.12;101311.00;5028066;28;69809;-28
2021/04/12 01:08:49;;;;;;;;;;;;;;;30.98;53.99;101310.84;5036886;28;65384;-28
2021/04/12 01:11:38;;;;;;;22.00;13.10;;;;;;;31.08;53.76;101310.38;5031632;28;70797;-29
2021/04/12 01:14:27;;;;;;;29.17;14.65;;;;;;;31.11;53.97;101310.78;5029028;28;65810;-28
2021/04/12 01:17:15;;;;;;;14.65;13.13;;;;;;;31.14;53.22;101325.78;5023094;28;69373;-28
2021/04/12 01:20:10;;;;;;;21.45;13.35;;;;;;;31.12;53.70;101323.31;5029190;28;65991;-28
2021/04/12 01:23:11;;;;;;;22.85;13.20;;;;;;;31.14;53.28;101331.22;5037665;28;69889;-28
2021/04/12 01:26:02;;;;;;;20.17;13.57;;;;;;;31.20;53.66;101329.53;5019983;28;66205;-29
2021/04/12 01:28:59;;;;;;;20.92;12.77;;;;;;;31.25;52.87;101324.31;5031381;28;70216;-29
2021/04/12 01:31:58;;;;;;;19.52;12.00;;;;;;;31.27;52.85;101330.38;5026989;28;65542;-29
2021/04/12 01:34:38;;;;;;;19.15;12.05;;;;;;;31.32;52.86;101333.28;5036201;28;70757;-28
2021/04/12 01:37:14;;;;;;;17.15;12.48;;;;;;;31.31;52.79;101331.59;5038607;28;66112;-28
2021/04/12 01:40:00;;;;;;;16.85;11.75;;;;;;;31.30;52.71;101324.53;5035291;28;70017;-28
2021/04/12 01:42:37;;;;;;;21.33;11.60;;;;;;;31.35;52.93;101330.97;5027704;28;65749;-28
2021/04/12 01:45:20;;;;;;;15.75;12.30;;;;;;;31.37;52.30;101330.78;5032282;28;69846;-29
2021/04/12 01:48:08;;;;;;;13.95;11.88;;;;;;;31.40;52.28;101330.38;5028923;28;65964;-28
2021/04/12 01:51:19;;;;;;;12.40;11.20;;;;;;;31.44;52.46;101334.31;5034089;28;69094;-27
2021/04/12 01:54:29;;;;;;;15.40;10.60;;;;;;;31.51;52.04;101327.00;5030866;28;66624;-28
2021/04/12 01:57:23;;;;;;;14.65;10.77;;;;;;;31.56;51.85;101329.88;5020771;28;71208;-28
2021/04/12 02:00:05;;;;;;;15.43;10.43;;;;;;;31.62;51.51;101322.75;5036609;28;65351;-28
2021/04/12 02:03:17;;;;;;;14.43;10.77;;;;;;;31.66;51.23;101321.28;5021394;28;70075;-28
2021/04/12 02:05:52;;;;;;;12.07;10.05;;;;;;;31.70;51.41;101318.97;5024415;28;65877;-29
2021/04/12 02:08:43;;;;;;;13.68;10.25;;;;;;;31.71;51.64;101321.50;5028395;28;69806;-29
2021/04/12 02:11:32;;;;;;;10.63;9.73;;;;;;;31.74;51.56;101314.81;5052581;28;65153;-28
2021/04/12 02:14:35;;;;;;;11.23;10.23;;;;;;;31.79;51.00;101313.09;5026779;28;68888;-28
2021/04/12 02:17:23;;;;;;;13.88;10.25;;;;;;;31.84;50.63;101320.56;5024441;28;65855;-28
2021/04/12 02:20:15;;;;;;;10.95;9.77;;;;;;;31.87;50.82;101324.75;5033049;28;69886;-30
2021/04/12 02:23:22;;;;;;;17.05;10.32;;;;;;;31.89;51.14;101323.47;5023147;28;65603;-29
2021/04/12 02:26:01;;;;;;;13.18;9.98;;;;;;;31.96;50.99;101324.31;5017321;28;69759;-30
2021/04/12 02:28:50;;;;;;;10.98;9.80;;;;;;;31.98;50.45;101318.66;5033088;28;66102;-30
2021/04/12 02:32:00;;;;;;;11.20;10.10;;;;;;;32.00;50.54;101313.84;5030349;28;69997;-30
2021/04/12 02:35:03;;;;;;;12.02;10.45;;;;;;;32.07;50.45;101317.38;5049491;28;65829;-29
2021/04/12 02:37:55;;;;;;;11.45;10.38;;;;;;;32.11;50.60;101320.47;5032703;28;69213;-29
2021/04/12 02:40:55;;;;;;;10.98;9.50;;;;;;;32.14;50.11;101322.75;5030726;28;66174;-30
2021/04/12 02:43:56;;;;;;;11.20;10.02;;;;;;;32.17;50.38;101325.00;5024911;28;69333;-28
2021/04/12 02:46:54;;;;;;;11.85;10.13;;;;;;;32.21;49.87;101323.53;5033459;28;65360;-30
2021/04/12 02:49:52;;;;;;;10.73;9.63;;;;;;;32.26;49.63;101323.69;5030210;28;70589;-28
2021/04/12 02:52:42;;;;;;;10.80;9.68;;;;;;;32.30;50.03;101308.66;5020762;28;65465;-28
2021/04/12 02:55:21;;;;;;;10.25;9.00;;;;;;;32.34;49.87;101309.84;5019616;28;69265;-28
2021/04/12 02:58:15;;;;;;;11.10;9.80;;;;;;;32.35;49.36;101306.09;5031517;28;66412;-28
2021/04/12 03:01:07;;;;;;;10.35;9.35;;;;;;;32.27;49.46;101292.81;5028257;28;70317;-29
2021/04/12 03:03:41;;;;;;;10.60;9.50;;;;;;;32.45;49.46;101316.47;5023542;28;65936;-30
2021/04/12 03:06:40;;;;;;;10.15;9.15;;;;;;;32.33;49.75;101286.47;5051676;28;69104;-29
2021/04/12 03:09:31;;;;;;;11.88;8.88;;;;;;;32.50;48.92;101303.09;5024854;28;65837;-29
2021/04/12 03:12:28;;;;;;;11.20;9.80;;;;;;;32.56;49.10;101290.50;5026461;28;70117;-29
2021/04/12 03:15:10;;;;;;;10.93;9.35;;;;;;;32.58;48.90;101291.94;5032589;28;66213;-28
2021/04/12 03:18:16;;;;;;;10.48;9.07;;;;;;;32.59;48.88;101279.19;5029305;28;69210;-28
2021/04/12 03:21:10;;;;;;;16.08;9.60;;;;;;;32.64;48.77;101282.91;5029119;28;65583;-28
2021/04/12 03:24:23;;;;;;;10.48;9.52;;;;;;;32.64;48.87;101287.50;5034724;28;69737;-28
2021/04/12 03:27:16;;;;;;;10.57;8.90;;;;;;;32.71;48.61;101293.72;5032357;28;66686;-28
2021/04/12 03:30:02;;;;;;;10.25;9.10;;;;;;;32.74;48.91;101276.97;5018697;28;69828;-28
2021/04/12 03:32:43;;;;;;;10.18;9.20;;;;;;;32.78;48.96;101278.19;5035861;28;66948;-29
2021/04/12 03:35:42;;;;;;;12.73;8.73;;;;;;;32.77;48.47;101259.41;5029068;28;69343;-29
2021/04/12 03:38:38;;;;;;;10.63;9.45;;;;;;;32.86;48.72;101274.34;5020088;28;65133;-28
2021/04/12 03:41:17;;;;;;;11.82;8.88;;;;;;;32.89;48.39;101285.59;5028454;28;69289;-30
2021/04/12 03:44:02;;;;;;;9.93;8.93;;;;;;;32.93;48.62;101275.94;5029376;28;66134;-28
2021/04/12 03:47:03;;;;;;;9.55;8.75;;;;;;;32.96;48.46;101271.09;5025321;28;69361;-28
2021/04/12 03:49:51;;;;;;;9.60;8.65;;;;;;;33.04;48.49;101270.84;5022333;28;67072;-29
2021/04/12 03:52:46;;;;;;;9.85;8.55;;;;;;;33.07;48.22;101252.22;5025185;28;69941;-30
2021/04/12 03:55:46;;;;;;;12.52;9.32;;;;;;;33.07;48.15;101259.50;5052534;28;65990;-28
2021/04/12 03:58:29;;;;;;;;;;;;;;;33.14;47.97;101252.94;5026777;28;43569;-28
2021/04/12 04:01:43;;;;;;;11.65;8.90;;;;;;;33.05;47.98;101213.56;5034329;28;66975;-28
2021/04/12 04:04:40;;;;;;;9.82;8.80;;;;;;;33.20;47.65;101236.78;5032914;28;69160;-28
2021/04/12 04:07:35;;;;;;;11.75;8.73;;;;;;;33.22;47.82;101230.06;5031804;28;64407;-29
2021/04/12 04:10:22;;;;;;;10.90;8.10;;;;;;;33.25;48.17;101229.59;5036393;28;69288;-29
2021/04/12 04:13:19;;;;;;;10.18;9.18;;;;;;;33.28;47.94;101226.44;5024177;28;66607;-29
2021/04/12 04:16:13;;;;;;;10.23;9.20;;;;;;;33.34;47.85;101222.78;5032727;28;70020;-29
2021/04/12 04:19:05;;;;;;;9.68;8.77;;;;;;;33.36;47.72;101219.84;5035540;28;66101;-29
2021/04/12 04:22:09;;;;;;;9.82;9.02;;;;;;;33.27;47.57;101189.44;5035016;28;68962;-29
2021/04/12 04:25:10;;;;;;;10.73;9.07;;;;;;;33.46;47.43;101194.81;5035651;28;66225;-29
2021/04/12 04:28:11;;;;;;;10.10;9.10;;;;;;;33.37;47.48;101178.81;5024005;28;69736;-29
2021/04/12 04:30:50;;;;;;;8.65;8.00;;;;;;;33.51;47.57;101189.53;5034682;28;66475;-30
2021/04/12 04:33:33;;;;;;;9.98;8.65;;;;;;;33.55;47.48;101185.31;5019958;28;69921;-28
2021/04/12 04:36:33;;;;;;;9.85;8.95;;;;;;;33.58;47.24;101179.41;5032656;28;66102;-29
2021/04/12 04:39:32;;;;;;;9.43;8.63;;;;;;;33.60;47.33;101171.88;5035317;28;69696;-29
2021/04/12 04:42:47;;;;;;;9.25;8.45;;;;;;;33.63;47.11;101176.84;5028592;28;65706;-29
2021/04/12 04:45:26;;;;;;;14.80;9.65;;;;;;;33.68;47.22;101173.41;5033619;28;69419;-29
2021/04/12 04:48:08;;;;;;;9.70;8.80;;;;;;;33.71;47.22;101168.34;5051248;28;66573;-29
2021/04/12 04:51:09;;;;;;;8.95;8.25;;;;;;;33.70;47.24;101153.06;5034839;28;70769;-30
2021/04/12 04:54:08;;;;;;;8.70;8.00;;;;;;;33.75;47.19;101142.31;5033291;28;66456;-30
2021/04/12 04:57:06;;;;;;;8.95;8.15;;;;;;;33.77;47.07;101140.19;5022947;28;70638;-28
2021/04/12 04:59:46;;;;;;;9.02;8.43;;;;;;;33.85;46.92;101130.03;5036837;28;65839;-28
2021/04/12 05:02:31;;;;;;;9.05;8.15;;;;;;;33.87;47.12;101125.19;5037007;28;69847;-30
2021/04/12 05:05:33;;;;;;;9.20;8.40;;;;;;;33.89;46.80;101120.34;5036162;28;66385;-29
2021/04/12 05:08:32;;;;;;;9.35;8.43;;;;;;;33.93;47.09;101106.00;5032647;28;69446;-29
2021/04/12 05:11:26;;;;;;;8.63;7.97;;;;;;;33.94;46.70;101106.84;5028969;28;66043;-32
2021/04/12 05:14:43;;;;;;;9.38;8.10;;;;;;;33.99;46.76;101104.22;5025307;28;70074;-29
2021/04/12 05:17:34;;;;;;;8.55;7.63;;;;;;;33.99;46.88;101094.19;5035335;28;65264;-29
2021/04/12 05:20:30;;;;;;;10.32;8.05;;;;;;;34.00;46.75;101090.41;5034005;28;69764;-29
2021/04/12 05:23:16;;;;;;;8.25;7.68;;;;;;;34.04;46.80;101085.31;5032758;28;65521;-29
2021/04/12 05:26:21;;;;;;;9.95;7.70;;;;;;;34.07;46.87;101084.03;5020753;28;68987;-30
2021/04/12 05:29:28;;;;;;;8.43;7.65;;;;;;;34.07;46.84;101084.84;5036188;28;66097;-29
2021/04/12 05:32:20;;;;;;;8.63;7.82;;;;;;;34.08;46.77;101075.63;5046490;28;69724;-30
2021/04/12 05:35:25;;;;;;;9.50;7.88;;;;;;;34.11;46.43;101075.16;5023424;28;66126;-30
2021/04/12 05:38:13;;;;;;;11.65;7.68;;;;;;;34.19;46.54;101063.91;5038239;28;69503;-29
2021/04/12 05:40:55;;;;;;;9.38;8.52;;;;;;;34.25;46.23;101046.63;5021861;28;66339;-30
2021/04/12 05:43:53;;;;;;;9.57;7.88;;;;;;;34.24;46.40;101042.25;5039952;28;70021;-29
2021/04/12 05:46:33;;;;;;;9.18;8.38;;;;;;;34.22;46.68;101022.59;5025829;28;66143;-30
2021/04/12 05:49:49;;;;;;;8.30;7.70;;;;;;;34.28;46.44;101019.97;5025633;28;70363;-28
2021/04/12 05:52:49;;;;;;;8.55;7.95;;;;;;;34.33;46.56;101022.81;5013661;28;66110;-29
2021/04/12 05:55:29;;;;;;;8.10;7.50;;;;;;;34.35;46.37;101018.78;5037448;28;70066;-28
2021/04/12 05:58:37;;;;;;;8.52;7.82;;;;;;;34.34;46.20;101010.84;5027740;28;66755;-28
2021/04/12 06:01:42;;;;;;;12.07;8.38;;;;;;;34.37;46.28;101007.63;5023911;28;70076;-29
2021/04/12 06:04:22;;;;;;;12.35;8.20;;;;;;;34.43;46.68;101001.22;5019320;28;65232;-29
2021/04/12 06:07:33;;;;;;;9.52;8.07;;;;;;;34.33;46.30;100984.69;5033108;28;69845;-29
2021/04/12 06:10:25;;;;;;;9.20;8.40;;;;;;;34.41;46.25;100992.47;5040225;28;65932;-29
2021/04/12 06:13:25;;;;;;;8.95;8.10;;;;;;;34.43;46.18;100985.69;5038946;28;69304;-28
2021/04/12 06:15:58;;;;;;;8.82;8.00;;;;;;;34.47;46.19;100994.22;5036914;28;66105;-29
2021/04/12 06:19:02;;;;;;;11.13;8.13;;;;;;;34.44;46.21;100986.56;5019798;28;69914;-28
2021/04/12 06:22:09;;;;;;;9.13;8.30;;;;;;;34.50;46.29;100995.66;5033686;28;65777;-28
2021/04/12 06:24:48;;;;;;;9.10;8.23;;;;;;;34.49;46.65;100989.34;5037579;28;68939;-28
2021/04/12 06:27:37;;;;;;;9.07;8.27;;;;;;;34.49;46.64;100973.00;5035299;28;66271;-29
2021/04/12 06:31:00;;;;;;;9.85;8.50;;;;;;;34.48;46.85;100960.47;5026853;28;70102;-28
2021/04/12 06:33:44;;;;;;;8.88;8.18;;;;;;;34.38;46.73;100957.53;5027439;28;66032;-29
2021/04/12 06:36:33;;;;;;;9.30;7.95;;;;;;;34.55;46.99;100966.59;5017592;28;69777;-29
2021/04/12 06:39:17;;;;;;;9.40;8.50;;;;;;;34.49;46.93;100975.72;5021266;28;66396;-28
2021/04/12 06:41:58;;;;;;;8.52;7.82;;;;;;;34.47;47.03;100980.63;5019158;28;70098;-28
2021/04/12 06:44:37;;;;;;;8.48;7.75;;;;;;;34.47;47.18;100975.16;5022031;28;66714;-30
2021/04/12 06:47:43;;;;;;;10.25;8.68;;;;;;;34.49;47.15;100967.56;5026107;28;69183;-28
2021/04/12 06:50:43;;;;;;;9.27;8.45;;;;;;;34.34;47.23;100962.66;5028392;28;65223;-29
2021/04/12 06:53:34;;;;;;;8.25;7.75;;;;;;;34.48;47.05;100966.72;5018887;28;70613;-28
2021/04/12 06:56:23;;;;;;;9.65;8.85;;;;;;;34.46;47.29;100951.69;5031478;28;66135;-28
2021/04/12 06:59:20;;;;;;;9.13;8.32;;;;;;;34.46;47.66;100943.53;5030895;28;70268;-28
2021/04/12 07:02:15;;;;;;;10.70;9.65;;;;;;;34.32;48.96;100928.56;5017906;28;66429;-28
2021/04/12 07:05:19;;;;;;;11.70;9.65;;;;;;;34.28;49.08;100938.28;5023620;28;70025;-28
2021/04/12 07:08:16;;;;;;;11.63;9.50;;;;;;;34.42;48.75;100958.72;5021196;28;65689;-28
2021/04/12 07:11:06;;;;;;;8.73;7.93;;;;;;;34.46;48.73;100943.53;5026901;28;70321;-28
2021/04/12 07:13:52;;;;;;;13.32;8.63;;;;;;;34.42;49.05;100936.94;5026013;28;67070;-28
2021/04/12 07:16:41;;;;;;;9.18;8.48;;;;;;;34.39;48.64;100940.16;5029165;28;69627;-28
2021/04/12 07:19:20;;;;;;;8.82;8.00;;;;;;;34.30;49.10;100947.88;5023649;28;66074;-29
2021/04/12 07:22:21;;;;;;;9.27;7.75;;;;;;;34.32;48.89;100944.91;5017469;28;70148;-29
2021/04/12 07:25:35;;;;;;;9.20;8.18;;;;;;;34.29;48.86;100923.59;5035651;28;66088;-28
2021/04/12 07:28:06;;;;;;;8.80;8.00;;;;;;;34.32;49.13;100914.94;5009869;28;69889;-28
2021/04/12 07:31:01;;;;;;;7.97;7.20;;;;;;;34.28;48.92;100927.41;5023238;28;66040;-27
2021/04/12 07:33:41;;;;;;;8.90;7.57;;;;;;;34.26;49.13;100914.84;5033800;28;68942;-28
2021/04/12 07:36:11;;;;;;;7.95;7.25;;;;;;;34.20;49.37;100895.94;5034900;28;66128;-28
2021/04/12 07:39:18;;;;;;;8.13;7.28;;;;;;;34.18;49.22;100901.63;5031939;28;69165;-28
2021/04/12 07:42:10;;;;;;;8.02;7.40;;;;;;;34.17;49.40;100908.13;5036759;28;65352;-28
2021/04/12 07:45:06;;;;;;;7.00;6.30;;;;;;;34.13;49.22;100887.94;5020829;28;69685;-28
2021/04/12 07:48:14;;;;;;;7.65;6.95;;;;;;;34.09;49.24;100881.28;5034695;28;65363;-28
2021/04/12 07:51:21;;;;;;;13.07;6.82;;;;;;;34.10;49.30;100877.53;5025604;28;70037;-28
2021/04/12 07:54:28;;;;;;;7.40;6.78;;;;;;;34.05;49.41;100893.75;5019295;28;65932;-29
2021/04/12 07:57:10;;;;;;;8.52;6.90;;;;;;;34.06;49.40;100880.97;5020303;28;69772;-29
2021/04/12 08:00:20;;;;;;;7.95;7.32;;;;;;;33.99;49.52;100870.16;5018456;28;65627;-29
2021/04/12 08:03:34;;;;;;;7.30;6.38;;;;;;;33.99;49.55;100854.69;5002432;28;70002;-30
2021/04/12 08:06:23;;;;;;;7.13;6.47;;;;;;;33.99;49.52;100853.84;5022361;28;65785;-29
2021/04/12 08:09:17;;;;;;;9.57;6.30;;;;;;;33.92;49.54;100842.28;5025002;28;70015;-28
2021/04/12 08:12:32;;;;;;;7.07;6.43;;;;;;;33.89;49.75;100838.16;5035117;28;65894;-29
2021/04/12 08:15:12;;;;;;;6.40;5.80;;;;;;;33.90;49.70;100839.78;5018216;28;68938;-29
2021/04/12 08:17:57;;;;;;;6.93;6.32;;;;;;;33.91;49.58;100836.03;5027928;28;65163;-28
2021/04/12 08:20:45;;;;;;;8.13;6.30;;;;;;;33.81;49.82;100831.19;5037866;28;69791;-29
2021/04/12 08:23:30;;;;;;;6.75;6.20;;;;;;;33.84;49.75;100815.47;5023920;28;66054;-29
2021/04/12 08:26:34;;;;;;;7.00;6.45;;;;;;;33.83;49.79;100817.34;5035688;28;69961;-29
2021/04/12 08:29:28;;;;;;;6.85;6.35;;;;;;;33.83;49.52;100822.81;5029449;28;66047;-29
2021/04/12 08:32:12;;;;;;;7.72;5.97;;;;;;;33.82;49.90;100832.00;5021603;28;70190;-29
2021/04/12 08:35:00;;;;;;;;;;;;;;;33.82;49.82;100840.16;5036881;28;66099;-28
2021/04/12 08:38:07;;;;;;;5.70;5.20;;;;;;;33.83;49.89;100838.31;5036446;28;69994;-28
2021/04/12 08:41:12;;;;;;;6.35;5.95;;;;;;;33.84;49.74;100829.06;5020469;28;65317;-29
2021/04/12 08:44:01;;;;;;;6.15;5.60;;;;;;;33.85;49.65;100828.84;5020856;28;69859;-29
2021/04/12 08:47:15;;;;;;;6.80;6.20;;;;;;;33.82;49.93;100832.00;5029042;28;66463;-28
2021/04/12 08:50:00;;;;;;;7.07;6.10;;;;;;;33.81;49.75;100833.91;5033772;28;71076;-28
2021/04/12 08:52:43;;;;;;;5.88;5.47;;;;;;;33.81;49.90;100835.81;5034393;28;66513;-28
2021/04/12 08:55:50;;;;;;;6.25;5.70;;;;;;;33.80;49.92;100835.00;5034668;28;70569;-29
2021/04/12 08:59:02;;;;;;;6.85;6.25;;;;;;;33.74;50.18;100835.97;5034063;28;66613;-30
2021/04/12 09:01:57;;;;;;;6.03;5.53;;;;;;;33.76;49.93;100833.81;5017072;28;70395;-29
2021/04/12 09:05:15;;;;;;;6.70;6.05;;;;;;;33.73;50.25;100826.13;5019418;28;66102;-28
2021/04/12 09:08:32;;;;;;;6.20;5.50;;;;;;;33.72;50.19;100840.00;5039247;28;69244;-29
2021/04/12 09:11:30;;;;;;;5.88;5.47;;;;;;;33.71;50.30;100844.59;5025013;28;66166;-28
2021/04/12 09:14:20;;;;;;;7.28;6.40;;;;;;;33.75;50.08;100842.22;5037623;28;70110;-29
2021/04/12 09:17:17;;;;;;;6.72;6.22;;;;;;;33.72;50.30;100838.09;5026696;28;66390;-29
2021/04/12 09:20:03;;;;;;;7.70;6.05;;;;;;;33.71;50.17;100841.88;5037926;28;70043;-28
2021/04/12 09:22:52;;;;;;;7.18;6.35;;;;;;;33.73;50.10;100828.03;5029664;28;66012;-29
2021/04/12 09:25:59;;;;;;;7.13;6.47;;;;;;;33.68;50.33;100828.75;5021016;28;69902;-28
2021/04/12 09:28:38;;;;;;;6.32;5.80;;;;;;;33.70;50.29;100829.34;5018627;28;65973;-28
2021/04/12 09:31:41;;;;;;;10.18;6.07;;;;;;;33.68;50.43;100836.91;5033078;28;69125;-28
2021/04/12 09:34:48;;;;;;;6.68;6.00;;;;;;;33.67;50.51;100829.81;5007353;28;66010;-29
2021/04/12 09:37:53;;;;;;;7.55;5.72;;;;;;;33.70;50.16;100829.34;5031693;28;70527;-28
2021/04/12 09:40:35;;;;;;;7.07;6.38;;;;;;;33.71;50.19;100828.28;5020020;28;65883;-29
2021/04/12 09:43:51;;;;;;;7.40;5.85;;;;;;;33.66;50.30;100822.72;5028559;28;70082;-29
2021/04/12 09:46:40;;;;;;;6.72;6.00;;;;;;;33.66;50.31;100811.03;5017983;28;66122;-29
2021/04/12 09:49:48;;;;;;;7.72;6.50;;;;;;;33.67;50.35;100805.34;5019564;28;70193;-29
2021/04/12 09:52:42;;;;;;;6.63;6.13;;;;;;;33.63;50.43;100806.91;5035085;28;66310;-29
2021/04/12 09:55:28;;;;;;;7.05;6.22;;;;;;;33.66;50.32;100817.28;5040665;28;69939;-28
2021/04/12 09:58:10;;;;;;;6.97;6.20;;;;;;;33.66;50.43;100819.19;5032878;28;65766;-29
2021/04/12 10:00:49;;;;;;;6.57;6.03;;;;;;;33.52;50.48;100800.41;5036782;28;69570;-30
2021/04/12 10:03:52;;;;;;;9.30;6.57;;;;;;;33.64;50.32;100819.41;5025424;28;66135;-30
2021/04/12 10:06:51;;;;;;;7.97;5.68;;;;;;;33.63;50.35;100823.22;5029066;28;69479;-28
2021/04/12 10:09:58;;;;;;;7.70;6.60;;;;;;;33.58;50.63;100814.94;5021477;28;66706;-28
2021/04/12 10:12:47;;;;;;;8.02;6.32;;;;;;;33.49;51.88;100825.34;5028419;28;69591;-28
2021/04/12 10:15:35;;;;;;;14.30;8.07;;;;;;;33.12;53.89;100827.50;5034408;28;66706;-28
2021/04/12 10:18:15;;;;;;;14.50;8.23;;;;;;;33.02;53.87;100835.44;5034396;28;69723;-29
2021/04/12 10:21:28;;;;;;;13.85;8.48;;;;;;;32.83;54.60;100834.69;5026455;28;66024;-30
2021/04/12 10:24:06;;;;;;;12.90;8.43;;;;;;;32.82;54.57;100844.72;5033116;28;69021;-28
2021/04/12 10:26:53;;;;;;;15.88;8.20;;;;;;;32.64;54.72;100831.22;5034315;28;65598;-28
2021/04/12 10:29:44;;;;;;;22.80;10.52;;;;;;;32.64;54.91;100844.81;5026887;28;69812;-28
2021/04/12 10:32:33;;;;;;;16.58;10.77;;;;;;;32.70;54.78;100879.16;5029769;28;66116;-28
2021/04/12 10:35:15;;;;;;;19.88;9.40;;;;;;;32.69;54.19;100872.91;5027101;28;70132;-28
2021/04/12 10:38:02;;;;;;;27.48;9.25;;;;;;;32.66;54.30;100878.81;5036170;28;66765;-27
2021/04/12 10:40:48;;;;;;;16.38;10.68;;;;;;;32.36;54.60;100851.66;5038404;28;69938;-27
2021/04/12 10:44:07;;;;;;;29.08;12.23;;;;;;;32.59;54.64;100893.56;5035783;28;67079;-27
2021/04/12 10:47:05;;;;;;;16.08;11.18;;;;;;;32.54;55.38;100902.41;4994649;28;69950;-27
2021/04/12 10:50:11;;;;;;;26.08;13.48;;;;;;;32.44;56.13;100923.81;5027054;28;66032;-30
2021/04/12 10:52:57;;;;;;;17.90;10.80;;;;;;;32.51;55.67;100929.19;5027026;28;70206;-27
2021/04/12 10:55:42;;;;;;;13.82;9.57;;;;;;;32.48;55.77;100930.47;5032801;28;66284;-29
2021/04/12 10:58:32;;;;;;;18.63;10.05;;;;;;;32.28;55.55;100914.41;5035605;28;69309;-29
2021/04/12 11:01:09;;;;;;;15.45;9.73;;;;;;;32.22;56.40;100926.19;5035780;28;65911;-30
2021/04/12 11:03:59;;;;;;;18.00;9.52;;;;;;;32.37;56.28;100951.03;5027288;28;70435;-29
2021/04/12 11:07:01;;;;;;;9.90;8.90;;;;;;;32.38;55.94;100955.44;5032387;28;65975;-28
2021/04/12 11:09:55;;;;;;;19.77;10.25;;;;;;;32.39;56.05;100938.06;5030531;28;70642;-31
2021/04/12 11:12:56;;;;;;;25.85;12.90;;;;;;;32.41;57.95;100930.53;5029854;28;66004;-28
2021/04/12 11:15:58;;;;;;;20.85;12.30;;;;;;;32.44;57.19;100915.69;5028438;28;69914;-32
2021/04/12 11:18:37;;;;;;;21.67;11.60;;;;;;;32.44;57.11;100919.22;5028517;28;65247;-30
2021/04/12 11:21:23;;;;;;;24.70;12.20;;;;;;;32.49;56.67;100922.09;5033156;28;69085;-28
2021/04/12 11:24:03;;;;;;;19.63;11.30;;;;;;;32.45;56.77;100914.59;5025971;28;66714;-27
2021/04/12 11:26:55;;;;;;;15.10;9.95;;;;;;;32.44;56.81;100940.94;5033444;28;69863;-28
2021/04/12 11:29:31;;;;;;;22.23;12.25;;;;;;;32.42;56.37;100951.19;5017213;28;66134;-27
2021/04/12 11:32:02;;;;;;;15.68;11.43;;;;;;;32.37;57.05;100959.19;5026756;28;69889;-27
2021/04/12 11:34:51;;;;;;;23.40;12.38;;;;;;;32.29;57.14;100956.81;5021372;28;66557;-28
2021/04/12 11:37:41;;;;;;;20.30;12.00;;;;;;;32.32;57.47;100959.06;5035076;28;69826;-27
2021/04/12 11:40:29;;;;;;;17.65;10.60;;;;;;;32.35;57.47;100969.47;5025797;28;66129;-27
2021/04/12 11:43:15;;;;;;;21.38;10.85;;;;;;;32.32;57.12;100980.78;5029882;28;70024;-30
2021/04/12 11:45:58;;;;;;;13.20;10.45;;;;;;;32.23;56.27;100960.41;5026277;28;66170;-28
2021/04/12 11:48:34;;;;;;;13.45;10.38;;;;;;;32.32;56.28;100986.22;5027931;28;70398;-29
2021/04/12 11:51:23;;;;;;;16.98;10.13;;;;;;;32.27;56.40;100989.59;5030341;28;65367;-28
2021/04/12 11:54:01;;;;;;;13.32;10.20;;;;;;;32.11;56.65;100973.09;5031172;28;70478;-28
2021/04/12 11:56:34;;;;;;;13.27;10.00;;;;;;;32.25;56.35;101001.75;5024901;28;65482;-31
2021/04/12 11:59:39;;;;;;;18.42;9.32;;;;;;;32.17;57.41;101002.03;5029892;28;68950;-30
2021/04/12 12:02:30;;;;;;;15.68;9.07;;;;;;;32.09;57.47;101000.44;5028558;28;65932;-32
2021/04/12 12:05:31;;;;;;;45.55;8.18;;;;;;;32.08;57.75;101004.22;5021324;28;69793;-31
2021/04/12 12:08:26;;;;;;;12.98;8.13;;;;;;;32.18;57.95;101028.13;5027076;28;65302;-31
2021/04/12 12:10:59;;;;;;;16.25;8.23;;;;;;;32.23;57.65;101036.41;5025493;28;69273;-32
2021/04/12 12:13:41;;;;;;;8.82;6.53;;;;;;;32.21;57.57;101033.13;5026367;28;66540;-32
2021/04/12 12:16:29;;;;;;;14.73;6.60;;;;;;;32.10;55.59;101028.44;5024262;28;69658;-32
2021/04/12 12:19:22;;;;;;;7.63;5.07;;;;;;;31.93;54.24;101030.88;5027269;28;66056;-32
2021/04/12 12:21:57;;;;;;;4.60;4.20;;;;;;;31.89;53.27;101026.94;5024003;28;69773;-31
2021/04/12 12:25:25;;;;;;;3.72;3.42;;;;;;;31.74;51.85;101019.16;5028146;28;65371;-33
2021/04/12 12:28:17;;;;;;;8.57;3.17;;;;;;;31.64;50.68;101011.50;4986262;28;69395;-32
2021/04/12 12:31:30;;;;;;;6.03;2.88;;;;;;;31.57;51.13;101008.06;4990045;28;66159;-37
2021/04/12 12:34:24;;;;;;;8.13;4.22;;;;;;;31.52;52.35;101003.28;5026927;28;70549;-32
2021/04/12 12:37:02;;;;;;;6.00;3.83;;;;;;;31.49;51.47;101009.16;5032423;28;65148;-37
2021/04/12 12:39:48;;;;;;;16.63;3.35;;;;;;;31.43;50.08;101012.75;5028683;28;70652;-35
2021/04/12 12:42:37;;;;;;;8.70;3.30;;;;;;;31.34;49.51;101016.75;5030734;28;64673;-31
2021/04/12 12:45:14;;;;;;;4.32;3.13;;;;;;;31.30;49.51;101012.81;5028407;28;71184;-34
2021/04/12 12:47:49;;;;;;;6.13;2.50;;;;;;;31.19;49.73;100997.28;5045681;28;65574;-32
2021/04/12 12:50:44;;;;;;;14.68;2.80;;;;;;;31.14;49.13;101016.88;5027376;28;70067;-32
2021/04/12 12:53:25;;;;;;;8.30;2.75;;;;;;;30.98;48.23;101002.00;5026149;28;66218;-32
2021/04/12 12:56:12;;;;;;;5.20;2.28;;;;;;;31.02;47.43;101019.47;5026389;28;69149;-31
2021/04/12 12:58:56;;;;;;;19.17;2.80;;;;;;;30.93;46.74;101028.91;5029342;28;66040;-32
2021/04/12 13:01:37;;;;;;;5.63;1.83;;;;;;;30.91;47.48;101037.25;5030438;28;70016;-32
2021/04/12 13:04:24;;;;;;;2.15;1.80;;;;;;;30.87;46.73;101043.28;5024367;28;66143;-30
2021/04/12 13:07:10;;;;;;;6.20;1.67;;;;;;;30.78;47.14;101050.81;5041075;28;70486;-32
2021/04/12 13:09:54;;;;;;;2.38;1.80;;;;;;;30.61;45.80;101028.00;5025534;28;67143;-33
2021/04/12 13:12:34;;;;;;;9.73;1.98;;;;;;;30.71;45.91;101045.44;5025586;28;70337;-32
2021/04/12 13:15:18;;;;;;;5.22;1.80;;;;;;;30.60;45.08;101054.25;5032544;28;66831;-32